createdAt,value
2022-12-19T00:03:01.990Z,21.00
2022-12-19T00:06:07.697Z,19.73
2022-12-19T00:09:15.174Z,20.30
2022-12-19T00:12:24.347Z,20.60
2022-12-19T00:15:30.905Z,20.63
2022-12-19T00:18:34.391Z,21.03
2022-12-19T00:21:39.908Z,21.10
2022-12-19T00:24:48.893Z,21.03
2022-12-19T00:27:52.247Z,19.50
2022-12-19T00:30:56.301Z,20.67
2022-12-19T00:34:01.541Z,21.23
2022-12-19T00:37:06.993Z,19.70
2022-12-19T00:40:12.720Z,20.70
2022-12-19T00:43:16.484Z,20.30
2022-12-19T00:46:20.058Z,19.17
2022-12-19T00:49:23.727Z,20.30
2022-12-19T00:52:28.996Z,20.00
2022-12-19T00:55:34.637Z,20.07
2022-12-19T00:58:46.618Z,20.57
2022-12-19T01:01:53.668Z,20.83
2022-12-19T01:05:10.933Z,20.07
2022-12-19T01:08:41.341Z,19.87
2022-12-19T01:12:03.583Z,19.87
2022-12-19T01:15:12.749Z,19.90
2022-12-19T01:18:38.428Z,20.73
2022-12-19T01:21:42.517Z,20.20
2022-12-19T01:24:50.484Z,20.67
2022-12-19T01:27:56.053Z,21.10
2022-12-19T01:31:03.778Z,20.83
2022-12-19T01:34:10.541Z,19.97
2022-12-19T01:37:20.416Z,21.27
2022-12-19T01:40:25.996Z,18.93
2022-12-19T01:43:34.130Z,19.43
2022-12-19T01:46:42.811Z,20.47
2022-12-19T01:49:48.114Z,20.30
2022-12-19T01:53:03.796Z,19.60
2022-12-19T01:56:23.752Z,19.97
2022-12-19T01:59:33.643Z,20.63
2022-12-19T02:02:46.809Z,21.33
2022-12-19T02:05:54.485Z,19.17
2022-12-19T02:08:58.818Z,20.47
2022-12-19T02:12:06.204Z,19.03
2022-12-19T02:15:18.362Z,20.57
2022-12-19T02:18:36.273Z,19.87
2022-12-19T02:21:55.844Z,20.17
2022-12-19T02:25:56.708Z,21.30
2022-12-19T02:29:21.192Z,19.90
2022-12-19T02:32:36.398Z,19.33
2022-12-19T02:35:55.857Z,19.47
2022-12-19T02:39:09.383Z,20.47
2022-12-19T02:42:22.145Z,20.30
2022-12-19T02:45:40.633Z,20.97
2022-12-19T02:48:48.017Z,20.57
2022-12-19T02:51:51.645Z,21.30
2022-12-19T02:55:01.727Z,21.13
2022-12-19T02:58:34.179Z,22.73
2022-12-19T03:01:47.013Z,21.30
2022-12-19T03:04:59.510Z,22.03
2022-12-19T03:08:09.440Z,22.50
2022-12-19T03:21:50.581Z,23.00
2022-12-19T03:24:53.722Z,24.27
2022-12-19T03:28:03.124Z,22.67
2022-12-19T03:31:08.230Z,22.50
2022-12-19T03:34:20.695Z,23.23
2022-12-19T03:37:30.003Z,21.87
2022-12-19T03:40:36.898Z,22.23
2022-12-19T03:43:55.775Z,23.10
2022-12-19T03:47:04.877Z,22.87
2022-12-19T03:50:09.912Z,22.27
2022-12-19T03:53:36.242Z,22.63
2022-12-19T03:56:52.225Z,23.03
2022-12-19T04:00:04.492Z,22.93
2022-12-19T04:03:18.274Z,21.27
2022-12-19T04:06:23.399Z,22.27
2022-12-19T04:09:34.045Z,21.17
2022-12-19T04:12:52.797Z,21.80
2022-12-19T04:16:16.033Z,21.50
2022-12-19T04:19:27.857Z,21.77
2022-12-19T04:22:54.318Z,22.37
2022-12-19T04:26:07.284Z,22.40
2022-12-19T04:29:17.124Z,21.40
2022-12-19T04:32:35.285Z,22.80
2022-12-19T04:35:39.029Z,23.33
2022-12-19T04:38:42.171Z,21.57
2022-12-19T04:41:46.948Z,23.00
2022-12-19T04:44:49.982Z,22.97
2022-12-19T04:47:53.047Z,22.13
2022-12-19T04:50:56.960Z,24.17
2022-12-19T04:54:00.394Z,23.00
2022-12-19T04:57:06.760Z,23.13
2022-12-19T05:00:11.687Z,23.93
2022-12-19T05:03:14.779Z,21.60
2022-12-19T05:06:18.971Z,23.50
2022-12-19T05:09:22.464Z,23.23
2022-12-19T05:12:26.942Z,23.03
2022-12-19T05:15:29.981Z,21.93
2022-12-19T05:18:33.467Z,24.13
2022-12-19T05:21:36.677Z,23.77
2022-12-19T05:24:39.691Z,22.87
2022-12-19T05:27:44.169Z,22.83
2022-12-19T05:30:52.034Z,22.57
2022-12-19T05:33:55.566Z,22.20
2022-12-19T05:36:59.033Z,22.80
2022-12-19T05:40:03.356Z,23.10
2022-12-19T05:43:08.101Z,23.93
2022-12-19T05:46:11.445Z,22.87
2022-12-19T05:49:14.778Z,21.90
2022-12-19T05:52:17.991Z,21.97
2022-12-19T05:55:21.049Z,22.30
2022-12-19T05:58:25.453Z,23.80
2022-12-19T06:01:30.234Z,21.50
2022-12-19T06:04:33.534Z,23.43
2022-12-19T06:07:36.618Z,22.87
2022-12-19T06:10:39.654Z,22.00
2022-12-19T06:13:44.341Z,22.80
2022-12-19T06:16:47.704Z,22.53
2022-12-19T06:19:50.746Z,24.83
2022-12-19T06:22:53.738Z,23.40
2022-12-19T06:25:58.389Z,22.57
2022-12-19T06:29:02.805Z,22.13
2022-12-19T06:32:06.092Z,22.83
2022-12-19T06:35:12.040Z,25.13
2022-12-19T06:38:15.451Z,22.07
2022-12-19T06:41:37.385Z,22.73
2022-12-19T06:44:41.738Z,23.00
2022-12-19T06:47:44.787Z,23.27
2022-12-19T06:50:48.207Z,22.60
2022-12-19T06:53:51.775Z,20.93
2022-12-19T06:56:54.850Z,20.00
2022-12-19T06:59:59.212Z,21.47
2022-12-19T07:03:05.209Z,22.37
2022-12-19T07:06:09.193Z,19.37
2022-12-19T07:09:12.231Z,21.60
2022-12-19T07:12:15.284Z,21.33
2022-12-19T07:15:19.642Z,21.03
2022-12-19T07:18:22.779Z,22.43
2022-12-19T07:21:25.895Z,21.00
2022-12-19T07:24:29.564Z,21.60
2022-12-19T07:27:35.874Z,21.80
2022-12-19T07:30:40.696Z,22.13
2022-12-19T07:33:43.705Z,21.43
2022-12-19T07:36:47.028Z,22.13
2022-12-19T07:39:50.360Z,21.43
2022-12-19T07:42:53.386Z,21.47
2022-12-19T07:46:02.889Z,19.90
2022-12-19T07:49:06.136Z,21.10
2022-12-19T07:52:09.427Z,23.90
2022-12-19T07:55:12.604Z,20.83
2022-12-19T07:58:21.940Z,20.33
2022-12-19T08:01:28.486Z,20.30
2022-12-19T08:04:33.459Z,20.97
2022-12-19T08:07:41.669Z,20.87
2022-12-19T08:10:45.377Z,17.77
2022-12-19T08:13:49.517Z,21.47
2022-12-19T08:17:19.721Z,21.43
2022-12-19T08:20:17.327Z,20.70
2022-12-19T08:23:20.489Z,20.10
2022-12-19T08:26:25.910Z,21.07
2022-12-19T08:29:28.977Z,20.67
2022-12-19T08:32:33.297Z,22.27
2022-12-19T08:35:37.561Z,19.30
2022-12-19T08:38:41.223Z,19.10
2022-12-19T08:41:44.682Z,20.73
2022-12-19T08:44:47.853Z,20.07
2022-12-19T08:47:52.475Z,20.83
2022-12-19T08:50:58.011Z,20.80
2022-12-19T08:54:01.137Z,19.67
2022-12-19T08:57:05.275Z,21.87
2022-12-19T09:00:10.693Z,21.27
2022-12-19T09:03:16.141Z,20.87
2022-12-19T09:06:22.150Z,19.13
2022-12-19T09:09:27.067Z,20.83
2022-12-19T09:12:30.142Z,20.50
2022-12-19T09:15:33.337Z,20.37
2022-12-19T09:18:42.598Z,20.33
2022-12-19T09:21:48.221Z,21.30
2022-12-19T09:24:51.246Z,19.17
2022-12-19T09:28:26.487Z,20.03
2022-12-19T09:31:19.436Z,20.50
2022-12-19T09:34:24.368Z,20.07
2022-12-19T09:37:30.775Z,19.80
2022-12-19T09:40:54.183Z,19.47
2022-12-19T09:44:09.456Z,21.27
2022-12-19T09:47:16.501Z,21.00
2022-12-19T09:50:34.616Z,19.97
2022-12-19T09:53:54.417Z,19.80
2022-12-19T09:57:04.735Z,18.93
2022-12-19T10:00:14.263Z,18.80
2022-12-19T10:03:25.745Z,21.77
2022-12-19T10:07:11.366Z,19.20
2022-12-19T10:12:34.576Z,22.37
2022-12-19T10:13:31.562Z,18.77
2022-12-19T10:17:01.726Z,20.80
2022-12-19T10:20:20.823Z,19.97
2022-12-19T10:23:53.899Z,20.10
2022-12-19T10:27:01.569Z,19.63
2022-12-19T10:30:15.578Z,20.63
2022-12-19T10:33:25.882Z,19.83
2022-12-19T10:37:11.960Z,20.20
2022-12-19T10:40:13.034Z,19.30
2022-12-19T10:43:35.694Z,20.17
2022-12-19T10:46:43.557Z,22.07
2022-12-19T10:49:46.838Z,20.90
2022-12-19T10:52:56.764Z,21.20
2022-12-19T10:56:13.632Z,21.53
2022-12-19T10:59:20.688Z,18.63
2022-12-19T11:02:45.166Z,18.83
2022-12-19T11:05:58.375Z,20.20
2022-12-19T11:09:24.607Z,19.50
2022-12-19T11:17:39.833Z,19.83
2022-12-19T11:21:05.526Z,19.70
2022-12-19T11:29:17.391Z,20.73
2022-12-19T11:30:05.575Z,19.17
2022-12-19T11:30:59.587Z,19.27
2022-12-19T11:33:23.697Z,21.57
2022-12-19T11:36:36.795Z,19.03
2022-12-19T11:39:46.175Z,19.63
2022-12-19T11:43:18.167Z,21.60
2022-12-19T11:46:33.800Z,19.87
2022-12-19T11:49:43.074Z,20.97
2022-12-19T11:53:04.494Z,22.43
2022-12-19T11:56:16.424Z,21.27
2022-12-19T11:59:22.793Z,22.37
2022-12-19T12:02:51.900Z,21.33
2022-12-19T12:05:58.329Z,21.20
2022-12-19T12:12:30.871Z,22.70
2022-12-19T12:19:49.565Z,21.47
2022-12-19T12:28:25.602Z,20.70
2022-12-19T12:31:01.689Z,21.73
2022-12-19T12:31:16.107Z,21.67
2022-12-19T12:31:57.403Z,23.37
2022-12-19T12:35:08.605Z,22.93
2022-12-19T12:35:47.066Z,23.27
2022-12-19T12:41:46.932Z,22.97
2022-12-19T12:44:54.097Z,20.20
2022-12-19T12:47:57.130Z,21.23
2022-12-19T12:51:01.894Z,21.20
2022-12-19T12:54:13.208Z,19.80
2022-12-19T12:57:34.734Z,21.00
2022-12-19T13:00:39.979Z,18.73
2022-12-19T13:03:44.648Z,20.13
2022-12-19T13:07:17.330Z,20.20
2022-12-19T13:10:27.683Z,20.27
2022-12-19T13:13:53.086Z,19.17
2022-12-19T13:16:59.682Z,19.60
2022-12-19T13:20:48.440Z,19.90
2022-12-19T13:23:51.591Z,18.67
2022-12-19T13:26:54.582Z,21.43
2022-12-19T13:30:14.273Z,19.50
2022-12-19T13:33:17.355Z,20.87
2022-12-19T13:36:51.137Z,20.63
2022-12-19T13:40:32.783Z,21.30
2022-12-19T13:43:49.679Z,21.53
2022-12-19T13:46:56.164Z,20.57
2022-12-19T13:49:59.991Z,22.60
2022-12-19T13:53:10.699Z,22.30
2022-12-19T13:56:17.742Z,22.73
2022-12-19T13:59:23.007Z,21.07
2022-12-19T14:02:32.195Z,21.87
2022-12-19T14:06:16.904Z,21.67
2022-12-19T14:11:26.723Z,21.73
2022-12-19T14:13:53.820Z,21.83
2022-12-19T14:16:43.601Z,22.60
2022-12-19T14:19:50.467Z,22.23
2022-12-19T14:22:58.202Z,22.03
2022-12-19T14:28:26.197Z,23.73
2022-12-19T14:30:26.710Z,23.60
2022-12-19T14:33:44.776Z,21.70
2022-12-19T14:36:26.125Z,21.47
2022-12-19T14:39:33.728Z,22.87
2022-12-19T14:43:59.340Z,22.57
2022-12-19T14:52:35.818Z,22.00
2022-12-19T14:54:13.004Z,21.70
2022-12-19T14:54:34.716Z,21.97
2022-12-19T14:56:58.853Z,22.37
2022-12-19T15:01:08.435Z,23.50
2022-12-19T15:04:53.369Z,22.20
2022-12-19T15:07:25.612Z,23.73
2022-12-19T15:11:04.533Z,22.33
2022-12-19T15:14:52.683Z,22.63
2022-12-19T15:17:25.997Z,23.10
2022-12-19T15:20:29.046Z,23.60
2022-12-19T15:23:32.735Z,23.53
2022-12-19T15:26:47.901Z,24.70
2022-12-19T15:29:51.076Z,22.97
2022-12-19T15:32:55.419Z,24.17
2022-12-19T15:35:58.697Z,23.23
2022-12-19T15:39:01.873Z,24.20
2022-12-19T15:42:06.239Z,24.07
2022-12-19T15:45:16.425Z,24.10
2022-12-19T15:48:20.876Z,24.43
2022-12-19T15:51:23.919Z,23.43
2022-12-19T15:57:54.523Z,26.77
2022-12-19T16:01:04.540Z,25.90
2022-12-19T16:04:14.330Z,23.97
2022-12-19T16:07:22.704Z,25.43
2022-12-19T16:10:32.310Z,25.93
2022-12-19T16:13:36.589Z,24.67
2022-12-19T16:16:43.623Z,23.57
2022-12-19T16:19:49.875Z,26.77
2022-12-19T16:22:53.110Z,23.97
2022-12-19T16:25:56.151Z,23.07
2022-12-19T16:29:01.805Z,23.23
2022-12-19T16:32:05.860Z,24.03
2022-12-19T16:35:17.505Z,25.57
2022-12-19T16:38:27.472Z,25.53
2022-12-19T16:41:30.459Z,26.20
2022-12-19T16:44:48.290Z,25.60
2022-12-19T16:47:54.692Z,24.60
2022-12-19T16:51:00.189Z,26.00
2022-12-19T16:54:03.227Z,24.23
2022-12-19T16:57:10.940Z,25.53
2022-12-19T17:00:17.257Z,24.40
2022-12-19T17:03:30.711Z,25.50
2022-12-19T17:06:35.107Z,26.87
2022-12-19T17:09:38.313Z,24.77
2022-12-19T17:12:44.019Z,25.33
2022-12-19T17:15:52.615Z,24.47
2022-12-19T17:19:00.234Z,23.20
2022-12-19T17:22:05.057Z,23.80
2022-12-19T17:25:21.597Z,23.73
2022-12-19T17:28:24.705Z,28.67
2022-12-19T17:31:31.194Z,24.93
2022-12-19T17:34:35.583Z,24.57
2022-12-19T17:37:40.035Z,24.73
2022-12-19T17:40:44.157Z,25.57
2022-12-19T17:43:47.550Z,24.67
2022-12-19T17:46:51.294Z,25.77
2022-12-19T17:49:54.321Z,24.80
2022-12-19T17:52:58.826Z,26.17
2022-12-19T17:56:01.929Z,25.47
2022-12-19T17:59:05.000Z,25.83
2022-12-19T18:02:21.609Z,25.23
2022-12-19T18:05:28.718Z,25.40
2022-12-19T18:08:34.275Z,25.20
2022-12-19T18:11:41.821Z,25.83
2022-12-19T18:14:45.395Z,26.63
2022-12-19T18:17:50.385Z,27.30
2022-12-19T18:20:53.451Z,27.67
2022-12-19T18:23:58.048Z,26.37
2022-12-19T18:27:01.100Z,25.17
2022-12-19T18:30:04.780Z,27.07
2022-12-19T18:33:09.094Z,26.57
2022-12-19T18:36:23.541Z,26.73
2022-12-19T18:39:31.954Z,29.73
2022-12-19T18:42:34.964Z,28.10
2022-12-19T18:45:40.900Z,29.07
2022-12-19T18:48:47.129Z,26.43
2022-12-19T18:51:51.559Z,28.07
2022-12-19T18:54:56.028Z,28.03
2022-12-19T18:57:59.563Z,25.77
2022-12-19T19:01:05.986Z,27.03
2022-12-19T19:04:12.214Z,26.00
2022-12-19T19:07:15.443Z,23.50
2022-12-19T19:10:24.959Z,25.63
2022-12-19T19:13:37.741Z,27.00
2022-12-19T19:16:40.913Z,25.70
2022-12-19T19:19:44.086Z,25.43
2022-12-19T19:22:51.367Z,26.43
2022-12-19T19:25:55.916Z,25.93
2022-12-19T19:28:59.229Z,23.83
2022-12-19T19:32:02.706Z,24.47
2022-12-19T19:35:08.309Z,25.63
2022-12-19T19:38:23.806Z,25.03
2022-12-19T19:41:30.016Z,24.67
2022-12-19T19:44:33.827Z,26.53
2022-12-19T19:47:37.593Z,25.33
2022-12-19T19:50:40.767Z,25.60
2022-12-19T19:53:43.926Z,24.60
2022-12-19T19:56:48.850Z,24.57
2022-12-19T19:59:51.915Z,25.83
2022-12-19T20:03:03.634Z,24.63
2022-12-19T20:06:12.382Z,26.83
2022-12-19T20:09:20.259Z,23.63
2022-12-19T20:12:28.487Z,23.20
2022-12-19T20:15:32.010Z,24.57
2022-12-19T20:18:40.087Z,23.67
2022-12-19T20:21:43.873Z,25.53
2022-12-19T20:24:51.088Z,23.37
2022-12-19T20:28:07.043Z,24.07
2022-12-19T20:31:13.654Z,24.73
2022-12-19T20:34:17.323Z,23.00
2022-12-19T20:37:20.327Z,23.20
2022-12-19T20:40:24.227Z,23.20
2022-12-19T20:43:28.864Z,22.80
2022-12-19T20:46:32.115Z,24.80
2022-12-19T20:49:36.614Z,25.10
2022-12-19T20:52:48.979Z,22.87
2022-12-19T20:55:58.249Z,22.47
2022-12-19T20:59:05.326Z,23.03
2022-12-19T21:02:13.626Z,23.57
2022-12-19T21:05:21.587Z,21.17
2022-12-19T21:08:27.831Z,24.17
2022-12-19T21:11:40.795Z,23.87
2022-12-19T21:15:04.118Z,22.27
2022-12-19T21:18:12.668Z,23.43
2022-12-19T21:21:18.512Z,22.87
2022-12-19T21:24:21.616Z,21.83
2022-12-19T21:27:24.699Z,21.87
2022-12-19T21:30:29.138Z,21.50
2022-12-19T21:33:32.688Z,21.87
2022-12-19T21:36:36.815Z,21.47
2022-12-19T21:39:40.785Z,21.37
2022-12-19T21:42:44.211Z,22.53
2022-12-19T21:45:48.988Z,23.43
2022-12-19T21:49:12.451Z,22.40
2022-12-19T21:52:20.600Z,23.40
2022-12-19T21:55:26.288Z,22.70
2022-12-19T21:58:29.572Z,22.60
2022-12-19T22:01:35.705Z,22.27
2022-12-19T22:04:38.949Z,24.33
2022-12-19T22:07:42.041Z,24.00
2022-12-19T22:10:45.536Z,24.00
2022-12-19T22:13:49.976Z,23.10
2022-12-19T22:16:54.472Z,23.43
2022-12-19T22:19:57.560Z,24.63
2022-12-19T22:23:00.771Z,22.43
2022-12-19T22:26:06.992Z,23.07
2022-12-19T22:29:12.713Z,21.93
2022-12-19T22:32:17.724Z,20.97
2022-12-19T22:35:21.082Z,23.07
2022-12-19T22:38:24.148Z,23.67
2022-12-19T22:41:29.032Z,23.40
2022-12-19T22:44:32.026Z,21.93
2022-12-19T22:47:36.830Z,22.00
2022-12-19T22:50:47.087Z,23.40
2022-12-19T22:53:50.295Z,22.40
2022-12-19T22:56:53.331Z,23.73
2022-12-19T22:59:56.395Z,22.03
2022-12-19T23:03:01.062Z,22.63
2022-12-19T23:06:04.399Z,22.27
2022-12-19T23:09:09.758Z,21.87
2022-12-19T23:12:13.511Z,21.17
2022-12-19T23:15:17.012Z,20.33
2022-12-19T23:18:21.825Z,22.13
2022-12-19T23:21:27.237Z,21.40
2022-12-19T23:24:30.605Z,21.17
2022-12-19T23:27:33.649Z,22.77
2022-12-19T23:30:37.755Z,20.40
2022-12-19T23:33:42.502Z,21.60
2022-12-19T23:37:10.304Z,19.97
2022-12-19T23:40:11.699Z,20.83
2022-12-19T23:43:16.332Z,21.07
2022-12-19T23:46:21.902Z,19.53
2022-12-19T23:49:26.840Z,19.77
2022-12-19T23:52:30.505Z,22.23
2022-12-19T23:55:34.915Z,22.47
2022-12-19T23:58:38.106Z,20.10
